createdAt,value
2023-03-29T00:00:10.248Z,99.90
2023-03-29T00:02:37.085Z,99.90
2023-03-29T00:05:05.031Z,99.90
2023-03-29T00:07:33.595Z,99.90
2023-03-29T00:10:02.003Z,99.90
2023-03-29T00:12:28.909Z,99.90
2023-03-29T00:14:55.674Z,99.90
2023-03-29T00:17:22.749Z,99.90
2023-03-29T00:19:49.567Z,99.90
2023-03-29T00:22:16.522Z,99.90
2023-03-29T00:24:43.306Z,99.90
2023-03-29T00:27:10.019Z,99.90
2023-03-29T00:29:36.758Z,99.90
2023-03-29T00:32:03.527Z,99.90
2023-03-29T00:34:30.897Z,99.90
2023-03-29T00:36:58.292Z,99.90
2023-03-29T00:39:26.442Z,99.90
2023-03-29T00:41:53.805Z,99.90
2023-03-29T00:44:56.620Z,99.90
2023-03-29T00:47:49.666Z,99.90
2023-03-29T00:50:22.598Z,99.90
2023-03-29T00:53:04.783Z,99.90
2023-03-29T00:55:42.948Z,99.90
2023-03-29T00:58:15.510Z,99.90
2023-03-29T01:00:55.402Z,99.90
2023-03-29T01:03:27.461Z,99.90
2023-03-29T01:06:00.316Z,99.90
2023-03-29T01:08:29.509Z,99.90
2023-03-29T01:11:08.318Z,99.90
2023-03-29T01:13:44.044Z,99.90
2023-03-29T01:16:13.176Z,99.90
2023-03-29T01:18:41.927Z,99.90
2023-03-29T01:21:23.912Z,99.90
2023-03-29T01:23:51.245Z,99.90
2023-03-29T01:26:31.218Z,99.90
2023-03-29T01:29:08.722Z,99.90
2023-03-29T01:31:52.748Z,99.90
2023-03-29T01:34:51.588Z,99.90
2023-03-29T01:37:27.823Z,99.90
2023-03-29T01:39:54.719Z,99.90
2023-03-29T01:42:31.880Z,99.90
2023-03-29T01:45:10.002Z,99.90
2023-03-29T01:47:57.557Z,99.90
2023-03-29T01:50:29.563Z,99.90
2023-03-29T01:53:22.303Z,99.90
2023-03-29T01:55:56.635Z,99.90
2023-03-29T01:58:28.677Z,99.90
2023-03-29T02:00:55.702Z,99.90
2023-03-29T02:03:26.393Z,99.90
2023-03-29T02:05:54.872Z,99.90
2023-03-29T02:08:23.450Z,99.90
2023-03-29T02:10:51.873Z,99.90
2023-03-29T02:13:19.705Z,99.90
2023-03-29T02:15:47.584Z,99.90
2023-03-29T02:18:17.717Z,99.90
2023-03-29T02:20:48.610Z,99.90
2023-03-29T02:23:49.724Z,99.90
2023-03-29T02:26:17.928Z,99.90
2023-03-29T02:28:44.748Z,99.90
2023-03-29T02:31:24.215Z,99.90
2023-03-29T02:34:00.405Z,99.90
2023-03-29T02:36:40.871Z,99.90
2023-03-29T02:39:10.002Z,99.90
2023-03-29T02:41:38.599Z,99.90
2023-03-29T02:44:08.167Z,99.90
2023-03-29T02:46:35.168Z,99.90
2023-03-29T02:49:01.995Z,99.90
2023-03-29T02:51:33.862Z,99.90
2023-03-29T02:54:06.607Z,99.90
2023-03-29T02:56:54.881Z,99.90
2023-03-29T02:59:24.771Z,99.90
2023-03-29T03:01:55.388Z,99.90
2023-03-29T03:04:22.268Z,99.90
2023-03-29T03:06:50.176Z,99.90
2023-03-29T03:09:17.700Z,99.90
2023-03-29T03:11:44.595Z,99.90
2023-03-29T03:14:11.605Z,99.90
2023-03-29T03:16:38.752Z,99.90
2023-03-29T03:19:07.098Z,99.90
2023-03-29T03:21:35.209Z,99.90
2023-03-29T03:24:02.127Z,99.90
2023-03-29T03:26:31.557Z,99.90
2023-03-29T03:28:58.592Z,99.90
2023-03-29T03:31:25.564Z,99.90
2023-03-29T03:33:52.943Z,99.90
2023-03-29T03:36:19.733Z,99.90
2023-03-29T03:38:46.492Z,99.90
2023-03-29T03:41:13.278Z,99.90
2023-03-29T03:43:42.936Z,99.90
2023-03-29T03:46:09.864Z,99.90
2023-03-29T03:48:37.232Z,99.90
2023-03-29T03:51:04.901Z,99.90
2023-03-29T03:53:32.259Z,99.90
2023-03-29T03:55:59.017Z,99.90
2023-03-29T03:58:27.130Z,99.90
2023-03-29T04:00:54.977Z,99.90
2023-03-29T04:03:21.927Z,99.90
2023-03-29T04:05:48.830Z,99.90
2023-03-29T04:08:15.677Z,99.90
2023-03-29T04:10:42.470Z,99.90
2023-03-29T04:13:09.228Z,99.90
2023-03-29T04:15:39.131Z,99.90
2023-03-29T04:18:07.638Z,99.90
2023-03-29T04:20:34.712Z,99.90
2023-03-29T04:23:01.787Z,99.90
2023-03-29T04:25:28.926Z,99.90
2023-03-29T04:27:56.384Z,99.90
2023-03-29T04:30:26.718Z,99.90
2023-03-29T04:32:56.567Z,99.90
2023-03-29T04:35:23.922Z,99.90
2023-03-29T04:37:52.524Z,99.90
2023-03-29T04:40:19.598Z,99.90
2023-03-29T04:42:47.308Z,99.90
2023-03-29T04:45:18.026Z,99.90
2023-03-29T04:47:46.054Z,99.90
2023-03-29T04:50:13.864Z,99.90
2023-03-29T04:52:41.455Z,99.90
2023-03-29T04:55:08.713Z,99.90
2023-03-29T04:57:35.482Z,99.90
2023-03-29T05:00:05.225Z,99.90
2023-03-29T05:02:32.940Z,99.90
2023-03-29T05:04:59.712Z,99.90
2023-03-29T05:07:26.448Z,99.90
2023-03-29T05:09:53.404Z,99.90
2023-03-29T05:12:20.228Z,99.90
2023-03-29T05:14:47.202Z,99.90
2023-03-29T05:17:14.317Z,99.90
2023-03-29T05:19:44.414Z,99.90
2023-03-29T05:22:11.342Z,99.90
2023-03-29T05:24:38.085Z,99.90
2023-03-29T05:27:05.098Z,99.90
2023-03-29T05:29:32.874Z,99.90
2023-03-29T05:31:59.906Z,99.90
2023-03-29T05:34:26.940Z,99.90
2023-03-29T05:36:53.797Z,99.90
2023-03-29T05:39:21.138Z,99.90
2023-03-29T05:41:47.896Z,99.90
2023-03-29T05:44:14.614Z,99.90
2023-03-29T05:46:41.919Z,99.90
2023-03-29T05:49:08.702Z,99.90
2023-03-29T05:51:35.598Z,99.90
2023-03-29T05:54:02.345Z,99.90
2023-03-29T05:56:29.210Z,99.90
2023-03-29T05:58:57.036Z,99.90
2023-03-29T06:01:24.629Z,99.90
2023-03-29T06:03:52.353Z,99.90
2023-03-29T06:06:19.440Z,99.90
2023-03-29T06:08:47.986Z,99.90
2023-03-29T06:11:15.960Z,99.90
2023-03-29T06:13:42.761Z,99.90
2023-03-29T06:16:11.137Z,99.90
2023-03-29T06:18:41.418Z,99.90
2023-03-29T06:21:09.400Z,99.90
2023-03-29T06:23:36.598Z,99.90
2023-03-29T06:26:04.424Z,99.90
2023-03-29T06:28:34.369Z,99.90
2023-03-29T06:31:02.930Z,99.90
2023-03-29T06:33:32.348Z,99.90
2023-03-29T06:35:59.176Z,99.90
2023-03-29T06:38:28.448Z,99.90
2023-03-29T06:41:06.935Z,99.90
2023-03-29T06:43:34.772Z,99.90
2023-03-29T06:46:02.014Z,99.90
2023-03-29T06:48:29.488Z,99.90
2023-03-29T06:50:56.536Z,99.90
2023-03-29T06:53:26.610Z,99.90
2023-03-29T06:55:55.978Z,99.90
2023-03-29T06:58:22.783Z,99.90
2023-03-29T07:00:56.423Z,99.90
2023-03-29T07:03:23.672Z,99.90
2023-03-29T07:05:52.049Z,99.90
2023-03-29T07:08:21.400Z,99.90
2023-03-29T07:10:54.858Z,99.90
2023-03-29T07:13:24.905Z,99.90
2023-03-29T07:15:51.726Z,99.90
2023-03-29T07:18:18.920Z,99.90
2023-03-29T07:20:47.566Z,99.90
2023-03-29T07:23:15.864Z,99.90
2023-03-29T07:25:42.622Z,99.90
2023-03-29T07:28:09.417Z,99.90
2023-03-29T07:30:37.220Z,99.90
2023-03-29T07:33:04.545Z,99.90
2023-03-29T07:35:35.595Z,99.90
2023-03-29T07:38:02.877Z,99.90
2023-03-29T07:40:29.625Z,99.90
2023-03-29T07:42:57.200Z,99.90
2023-03-29T07:45:28.561Z,99.90
2023-03-29T07:47:58.955Z,99.90
2023-03-29T07:50:29.983Z,99.90
2023-03-29T07:52:58.437Z,99.90
2023-03-29T07:55:27.614Z,99.90
2023-03-29T07:57:54.582Z,99.90
2023-03-29T08:00:24.550Z,99.90
2023-03-29T08:02:57.976Z,99.90
2023-03-29T08:05:37.787Z,99.90
2023-03-29T08:08:08.138Z,99.90
2023-03-29T08:10:37.115Z,99.90
2023-03-29T08:13:09.274Z,99.90
2023-03-29T08:15:42.156Z,99.90
2023-03-29T08:18:09.081Z,99.90
2023-03-29T08:20:36.333Z,99.90
2023-03-29T08:23:03.379Z,99.90
2023-03-29T08:25:30.308Z,99.90
2023-03-29T08:27:57.186Z,99.90
2023-03-29T08:30:24.371Z,99.90
2023-03-29T08:32:53.620Z,99.90
2023-03-29T08:35:24.855Z,99.90
2023-03-29T08:37:51.582Z,99.90
2023-03-29T08:40:27.257Z,99.90
2023-03-29T08:43:21.028Z,99.90
2023-03-29T08:46:12.844Z,99.90
2023-03-29T08:48:45.572Z,99.90
2023-03-29T08:51:24.509Z,99.90
2023-03-29T08:54:01.730Z,99.90
2023-03-29T08:56:37.948Z,99.90
2023-03-29T08:59:12.570Z,99.90
2023-03-29T09:01:39.754Z,99.90
2023-03-29T09:04:28.151Z,99.90
2023-03-29T09:06:58.391Z,99.90
2023-03-29T09:09:32.801Z,99.90
2023-03-29T09:12:08.633Z,99.90
2023-03-29T09:14:44.637Z,99.90
2023-03-29T09:17:29.224Z,99.90
2023-03-29T09:20:14.072Z,99.90
2023-03-29T09:23:23.408Z,99.90
2023-03-29T09:25:54.166Z,99.90
2023-03-29T09:28:47.771Z,99.90
2023-03-29T09:31:21.552Z,99.90
2023-03-29T09:33:59.496Z,99.90
2023-03-29T09:36:41.466Z,99.90
2023-03-29T09:39:13.299Z,99.90
2023-03-29T09:41:50.858Z,99.90
2023-03-29T09:44:30.144Z,99.90
2023-03-29T09:47:36.149Z,99.90
2023-03-29T09:50:23.131Z,99.90
2023-03-29T09:52:56.797Z,99.90
2023-03-29T09:55:28.523Z,99.90
2023-03-29T09:57:57.849Z,99.90
2023-03-29T10:00:25.074Z,99.90
2023-03-29T10:02:54.633Z,99.90
2023-03-29T10:05:24.351Z,99.90
2023-03-29T10:07:54.461Z,99.90
2023-03-29T10:10:29.628Z,99.90
2023-03-29T10:13:14.850Z,99.90
2023-03-29T10:15:41.934Z,99.90
2023-03-29T10:18:14.002Z,99.90
2023-03-29T10:20:41.075Z,99.90
2023-03-29T10:23:17.311Z,99.90
2023-03-29T10:25:44.521Z,99.90
2023-03-29T10:28:18.595Z,99.90
2023-03-29T10:30:52.425Z,99.90
2023-03-29T10:33:23.123Z,99.90
2023-03-29T10:35:51.086Z,99.90
2023-03-29T10:38:20.283Z,99.90
2023-03-29T10:40:53.130Z,99.90
2023-03-29T10:43:19.818Z,99.90
2023-03-29T10:45:52.226Z,99.90
2023-03-29T10:48:23.720Z,99.90
2023-03-29T10:50:54.937Z,98.90
2023-03-29T10:53:33.625Z,97.10
2023-03-29T10:56:32.698Z,95.80
2023-03-29T10:59:17.968Z,97.10
2023-03-29T11:02:07.557Z,95.60
2023-03-29T11:04:47.615Z,95.00
2023-03-29T11:07:33.428Z,95.50
2023-03-29T11:10:18.634Z,96.00
2023-03-29T11:13:00.009Z,94.10
2023-03-29T11:15:45.412Z,95.60
2023-03-29T11:18:17.772Z,94.20
2023-03-29T11:21:16.796Z,94.20
2023-03-29T11:23:52.772Z,94.30
2023-03-29T11:26:39.742Z,94.80
2023-03-29T11:29:19.748Z,94.80
2023-03-29T11:32:08.927Z,94.30
2023-03-29T11:34:52.566Z,94.40
2023-03-29T11:37:30.957Z,94.00
2023-03-29T11:40:39.279Z,94.10
2023-03-29T11:43:27.815Z,93.20
2023-03-29T11:46:02.494Z,92.80
2023-03-29T11:48:37.318Z,91.10
2023-03-29T11:51:19.777Z,90.90
2023-03-29T11:54:19.339Z,92.30
2023-03-29T11:57:12.729Z,92.50
2023-03-29T12:00:12.413Z,91.70
2023-03-29T12:02:41.876Z,91.60
2023-03-29T12:05:34.725Z,93.00
2023-03-29T12:08:09.661Z,92.50
2023-03-29T12:10:41.173Z,91.50
2023-03-29T12:13:24.667Z,92.10
2023-03-29T12:15:59.874Z,92.10
2023-03-29T12:18:45.393Z,92.80
2023-03-29T12:21:21.632Z,91.50
2023-03-29T12:23:49.507Z,92.10
2023-03-29T12:26:19.531Z,90.80
2023-03-29T12:29:19.139Z,90.10
2023-03-29T12:32:07.490Z,91.00
2023-03-29T12:34:35.386Z,91.20
2023-03-29T12:37:11.464Z,86.00
2023-03-29T12:39:39.188Z,87.10
2023-03-29T12:42:18.019Z,89.00
2023-03-29T12:44:50.033Z,90.30
2023-03-29T12:47:26.130Z,89.50
2023-03-29T12:49:56.610Z,90.00
2023-03-29T12:52:23.284Z,90.10
2023-03-29T12:54:58.846Z,89.60
2023-03-29T12:57:42.001Z,86.80
2023-03-29T13:00:27.035Z,89.60
2023-03-29T13:03:18.782Z,91.30
2023-03-29T13:05:46.089Z,88.60
2023-03-29T13:08:44.756Z,87.60
2023-03-29T13:11:37.459Z,89.50
2023-03-29T13:14:16.508Z,87.80
2023-03-29T13:16:43.713Z,86.80
2023-03-29T13:22:09.912Z,85.10
2023-03-29T13:25:02.249Z,85.60
2023-03-29T13:27:28.918Z,84.50
2023-03-29T13:30:09.395Z,83.90
2023-03-29T13:33:13.602Z,85.10
2023-03-29T13:36:05.744Z,85.10
2023-03-29T13:38:43.854Z,83.50
2023-03-29T13:41:52.719Z,83.80
2023-03-29T13:44:26.041Z,84.40
2023-03-29T13:47:35.402Z,85.70
2023-03-29T13:50:32.982Z,84.20
2023-03-29T13:53:05.155Z,83.10
2023-03-29T13:55:38.495Z,82.20
2023-03-29T13:58:29.438Z,80.30
2023-03-29T14:01:28.398Z,81.40
2023-03-29T14:03:56.750Z,81.90
2023-03-29T14:06:33.011Z,78.40
2023-03-29T14:09:06.408Z,80.00
2023-03-29T14:11:34.024Z,80.30
2023-03-29T14:14:05.115Z,81.60
2023-03-29T14:16:35.802Z,80.60
2023-03-29T14:19:16.261Z,81.10
2023-03-29T14:21:44.047Z,82.20
2023-03-29T14:24:16.697Z,83.90
2023-03-29T14:26:45.965Z,83.40
2023-03-29T14:29:12.880Z,84.10
2023-03-29T14:31:41.733Z,84.40
2023-03-29T14:34:17.074Z,85.70
2023-03-29T14:36:54.125Z,85.30
2023-03-29T14:39:23.346Z,88.20
2023-03-29T14:41:52.896Z,87.50
2023-03-29T14:44:22.676Z,88.00
2023-03-29T14:46:49.735Z,89.50
2023-03-29T14:49:19.324Z,91.10
2023-03-29T14:51:47.168Z,93.20
2023-03-29T14:54:24.053Z,96.00
2023-03-29T14:56:52.407Z,99.90
2023-03-29T14:59:38.457Z,99.90
2023-03-29T15:02:22.738Z,99.90
2023-03-29T15:05:05.810Z,99.90
2023-03-29T15:07:34.723Z,99.90
2023-03-29T15:10:05.493Z,99.90
2023-03-29T15:12:33.400Z,99.90
2023-03-29T15:15:01.468Z,99.90
2023-03-29T15:17:46.834Z,99.90
2023-03-29T15:20:39.768Z,99.90
2023-03-29T15:23:22.544Z,99.90
2023-03-29T15:25:55.986Z,99.90
2023-03-29T15:28:28.987Z,99.90
2023-03-29T15:31:08.218Z,99.90
2023-03-29T15:33:40.581Z,99.90
2023-03-29T15:36:10.108Z,99.90
2023-03-29T15:38:44.070Z,99.90
2023-03-29T15:41:14.577Z,99.90
2023-03-29T15:43:42.072Z,99.90
2023-03-29T15:46:12.285Z,99.90
2023-03-29T15:48:39.131Z,99.90
2023-03-29T15:51:06.945Z,99.90
2023-03-29T15:53:34.021Z,99.90
2023-03-29T15:56:02.858Z,99.90
2023-03-29T15:58:32.445Z,99.90
2023-03-29T16:01:12.354Z,99.90
2023-03-29T16:03:41.995Z,99.90
2023-03-29T16:06:12.529Z,99.90
2023-03-29T16:08:39.356Z,99.90
2023-03-29T16:11:06.789Z,99.90
2023-03-29T16:13:33.547Z,99.90
2023-03-29T16:16:00.398Z,99.90
2023-03-29T16:18:27.233Z,99.90
2023-03-29T16:20:54.582Z,99.90
2023-03-29T16:23:21.436Z,99.90
2023-03-29T16:25:48.177Z,99.90
2023-03-29T16:28:14.903Z,99.90
2023-03-29T16:30:41.881Z,99.90
2023-03-29T16:33:08.911Z,99.90
2023-03-29T16:35:40.187Z,99.90
2023-03-29T16:38:08.662Z,99.90
2023-03-29T16:40:36.516Z,99.90
2023-03-29T16:43:03.542Z,99.90
2023-03-29T16:45:30.653Z,99.90
2023-03-29T16:47:57.907Z,99.90
2023-03-29T16:50:24.861Z,99.90
2023-03-29T16:52:52.608Z,99.90
2023-03-29T16:55:19.699Z,99.90
2023-03-29T16:57:47.689Z,99.90
2023-03-29T17:00:16.462Z,99.90
2023-03-29T17:02:44.480Z,99.90
2023-03-29T17:05:12.382Z,99.90
2023-03-29T17:07:43.148Z,99.90
2023-03-29T17:10:11.733Z,99.90
2023-03-29T17:12:38.909Z,99.90
2023-03-29T17:15:07.799Z,99.90
2023-03-29T17:17:35.271Z,99.90
2023-03-29T17:20:02.116Z,99.90
2023-03-29T17:22:28.843Z,99.90
2023-03-29T17:24:55.682Z,99.90
2023-03-29T17:27:22.494Z,99.90
2023-03-29T17:29:49.821Z,99.90
2023-03-29T17:32:16.531Z,99.90
2023-03-29T17:34:43.317Z,99.90
2023-03-29T17:37:10.086Z,99.90
2023-03-29T17:39:37.947Z,99.90
2023-03-29T17:42:05.634Z,99.90
2023-03-29T17:44:33.411Z,99.90
2023-03-29T17:47:01.036Z,99.90
2023-03-29T17:49:28.058Z,99.90
2023-03-29T17:51:54.860Z,99.90
2023-03-29T17:54:21.764Z,99.90
2023-03-29T17:56:48.888Z,99.90
2023-03-29T17:59:16.321Z,99.90
2023-03-29T18:01:43.817Z,99.90
2023-03-29T18:04:12.093Z,99.90
2023-03-29T18:06:38.880Z,99.90
2023-03-29T18:09:06.162Z,99.90
2023-03-29T18:11:33.046Z,99.90
2023-03-29T18:14:01.056Z,99.90
2023-03-29T18:16:28.141Z,99.90
2023-03-29T18:18:55.007Z,99.90
2023-03-29T18:21:22.064Z,99.90
2023-03-29T18:23:49.452Z,99.90
2023-03-29T18:26:17.203Z,99.90
2023-03-29T18:28:47.283Z,99.90
2023-03-29T18:31:14.927Z,99.90
2023-03-29T18:33:41.853Z,99.90
2023-03-29T18:36:12.662Z,99.90
2023-03-29T18:38:43.315Z,99.90
2023-03-29T18:41:12.420Z,99.90
2023-03-29T18:43:40.493Z,99.90
2023-03-29T18:46:07.875Z,99.90
2023-03-29T18:48:39.122Z,99.90
2023-03-29T18:51:10.274Z,99.90
2023-03-29T18:53:38.787Z,99.90
2023-03-29T18:56:06.609Z,99.90
2023-03-29T18:58:33.635Z,99.90
2023-03-29T19:01:05.367Z,99.90
2023-03-29T19:03:34.487Z,99.90
2023-03-29T19:06:02.398Z,99.90
2023-03-29T19:08:29.481Z,99.90
2023-03-29T19:11:04.714Z,99.90
2023-03-29T19:13:31.704Z,99.90
2023-03-29T19:15:58.638Z,99.90
2023-03-29T19:18:26.039Z,99.90
2023-03-29T19:20:56.196Z,99.90
2023-03-29T19:23:25.971Z,99.90
2023-03-29T19:26:03.489Z,99.90
2023-03-29T19:28:36.465Z,99.90
2023-03-29T19:31:04.257Z,99.90
2023-03-29T19:33:31.059Z,99.90
2023-03-29T19:35:57.852Z,99.90
2023-03-29T19:38:24.713Z,99.90
2023-03-29T19:40:52.205Z,99.90
2023-03-29T19:43:20.723Z,99.90
2023-03-29T19:45:49.268Z,99.90
2023-03-29T19:48:22.196Z,99.90
2023-03-29T19:50:49.586Z,99.90
2023-03-29T19:53:16.473Z,99.90
2023-03-29T19:55:45.239Z,99.90
2023-03-29T19:58:12.891Z,99.90
2023-03-29T20:00:41.852Z,99.90
2023-03-29T20:03:09.953Z,99.90
2023-03-29T20:05:38.546Z,99.90
2023-03-29T20:08:05.844Z,99.90
2023-03-29T20:10:33.899Z,99.90
2023-03-29T20:13:01.827Z,99.90
2023-03-29T20:15:29.173Z,99.90
2023-03-29T20:17:59.343Z,99.90
2023-03-29T20:20:30.081Z,99.90
2023-03-29T20:23:04.757Z,99.90
2023-03-29T20:25:36.227Z,99.90
2023-03-29T20:28:04.753Z,99.90
2023-03-29T20:30:31.674Z,99.90
2023-03-29T20:32:58.503Z,99.90
2023-03-29T20:35:25.439Z,99.90
2023-03-29T20:37:52.252Z,99.90
2023-03-29T20:40:22.126Z,99.90
2023-03-29T20:42:49.059Z,99.90
2023-03-29T20:45:19.076Z,99.90
2023-03-29T20:47:57.575Z,99.90
2023-03-29T20:50:28.344Z,99.90
2023-03-29T20:53:06.718Z,99.90
2023-03-29T20:55:47.313Z,99.90
2023-03-29T20:58:26.219Z,99.90
2023-03-29T21:00:59.796Z,99.90
2023-03-29T21:03:37.347Z,99.90
2023-03-29T21:06:11.038Z,99.90
2023-03-29T21:08:39.760Z,99.90
2023-03-29T21:11:14.441Z,99.90
2023-03-29T21:13:47.886Z,99.90
2023-03-29T21:16:21.283Z,99.90
2023-03-29T21:19:04.672Z,99.90
2023-03-29T21:21:40.802Z,99.90
2023-03-29T21:24:34.713Z,99.90
2023-03-29T21:27:09.480Z,99.90
2023-03-29T21:29:59.561Z,99.90
2023-03-29T21:32:48.352Z,99.90
2023-03-29T21:35:15.784Z,99.90
2023-03-29T21:37:42.981Z,99.90
2023-03-29T21:40:10.771Z,99.90
2023-03-29T21:42:37.698Z,99.90
2023-03-29T21:45:04.919Z,99.90
2023-03-29T21:47:32.954Z,99.90
2023-03-29T21:50:04.561Z,99.90
2023-03-29T21:52:31.852Z,99.90
2023-03-29T21:54:59.173Z,99.90
2023-03-29T21:57:28.458Z,99.90
2023-03-29T21:59:56.743Z,99.90
2023-03-29T22:02:26.191Z,99.90
2023-03-29T22:04:54.078Z,99.90
2023-03-29T22:07:22.961Z,99.90
2023-03-29T22:09:49.893Z,99.90
2023-03-29T22:12:16.795Z,99.90
2023-03-29T22:14:43.798Z,99.90
2023-03-29T22:17:10.833Z,99.90
2023-03-29T22:19:41.798Z,99.90
2023-03-29T22:22:14.136Z,99.90
2023-03-29T22:24:42.437Z,99.90
2023-03-29T22:27:10.510Z,99.90
2023-03-29T22:29:37.550Z,99.90
2023-03-29T22:32:04.868Z,99.90
2023-03-29T22:34:32.348Z,99.90
2023-03-29T22:36:59.127Z,99.90
2023-03-29T22:39:25.937Z,99.90
2023-03-29T22:41:52.660Z,99.90
2023-03-29T22:44:19.416Z,99.90
2023-03-29T22:46:46.757Z,99.90
2023-03-29T22:49:14.173Z,99.90
2023-03-29T22:51:41.117Z,99.90
2023-03-29T22:54:08.225Z,99.90
2023-03-29T22:56:35.107Z,99.90
2023-03-29T22:59:02.168Z,99.90
2023-03-29T23:01:29.102Z,99.90
2023-03-29T23:03:56.336Z,99.90
2023-03-29T23:06:23.229Z,99.90
2023-03-29T23:08:50.103Z,99.90
2023-03-29T23:11:16.895Z,99.90
2023-03-29T23:13:43.709Z,99.90
2023-03-29T23:16:10.543Z,99.90
2023-03-29T23:18:37.841Z,99.90
2023-03-29T23:21:06.083Z,99.90
2023-03-29T23:23:33.609Z,99.90
2023-03-29T23:26:01.208Z,99.90
2023-03-29T23:28:30.440Z,99.90
2023-03-29T23:30:58.593Z,99.90
2023-03-29T23:33:26.833Z,99.90
2023-03-29T23:35:54.600Z,99.90
2023-03-29T23:38:21.589Z,99.90
2023-03-29T23:41:00.466Z,99.90
2023-03-29T23:43:32.650Z,99.90
2023-03-29T23:46:01.852Z,99.90
2023-03-29T23:48:29.290Z,99.90
2023-03-29T23:50:59.429Z,99.90
2023-03-29T23:53:28.875Z,99.90
2023-03-29T23:56:01.488Z,99.90
2023-03-29T23:58:29.400Z,99.90
